METAR Data

Data at: 0826 UTC 17 Nov 2018

METAR for:KFOK (Westhampton/Gabreski, NY, US)
Text:KFOK 170753Z AUTO 27007KT 10SM CLR 02/M02 A2999 RMK AO2 SLPNO T00221017 $
Temperature: 2.2°C ( 36°F)
Dewpoint: -1.7°C ( 29°F) [RH = 75%]
Pressure (altimeter):29.99 inches Hg (1015.7 mb)
Winds:from the W (270 degrees) at 8 MPH (7 knots; 3.6 m/s)
Visibility:10 or more sm (16+ km)
Ceiling:at least 12,000 feet AGL
Clouds:sky clear below 12,000 feet AGL
QC Flag:automated observation with no human augmentation; SOME DATA ABOVE MAY BE INACCURATE!!!"$" is an indication the sensor requires maintenance.